Decoded Metar for KNMM (MERIDIAN in MS, USA) (IATA:NMM) | Meteo·Mobile Aviation Weather
aviador You're here:

KNMM Decoded Metar

MERIDIAN in MS, USA
Report Time2018-09-20 13:56:00
UTC Time2018-09-20 14:19:44
Flight Rules vfr VFR
WindCalm
Visibility9999 m
Phenomena:N/A
Clouds:Few 065 Hf
Few 110 Hf
Scattered 280 Hf
Expected CloudBase > 1,600 ft AGL from Temp-Dew spread
CeilingNone
Temp27°C (ISA +13)
Dew Point23°C (79% RH)
Heat Index29.6°C
QNH1018 hPa
Density Alt1,975 ft
Elevation318 ft
Report Wrong Elevation
Raw Report
KNMM 201356Z 00000KT 10SM FEW065 FEW110 SCT280 27/23 A3007 RMK AO2
SLP188 T02720228 $=

Extra information for KNMM:More info

Metar Taf Metar & Taf Last 4 Metars F.Rules Stats Wind Profile Meteogram Temp Stats Airport Information Weather charts Add Link Nearby VenuesMetar ALERT Operation Metar Decoded Social comments

AIRNAV info for KNMM